Cedarbutte, South Dakota
Current Conditions -  °F | °C
As of 4:55 PM on Wednesday 22 Oct 2014 (Local Time) from KPHP Reporting Station
Clear Clear  
Wind Chill: 67°   Ceiling: Unl
Heat Index: 67°   Visibility: 10mi
Dew Point: 32°   Wind: 15mph
Humidity: 27%   Direction: 300°WNW
Pressure: 29.96"   Gusts: NA
Location:  43.6197°N, 100.883°W
Report Text: KPHP 222155Z AUTO 30013KT 10SM CLR 19/00 A2996 RMK AO2 SLP131 T01940000
Loading
Personal Weather Stations






























Interactive Weather Map
Tropical Storm Tracking
New forecast layout! Learn more

10-Day Weather Forecast

Advertisements
Track Severe Weather on mobile